Time;durP1;ratioP1;P1;durP2;ratioP2;P2;SDS_P1;SDS_P2;PMS_P1;PMS_P2;Temp;Humidity;BMP_temperature;BMP_pressure;BME280_temperature;BME280_humidity;BME280_pressure;Samples;Min_cycle;Max_cycle;Signal;HPM_P1;HPM_P2
2022/09/05 00:00:09;;;;;;;4.90;4.17;;;;;;;18.17;70.74;100772.16;5061211;28;20429;-64
2022/09/05 00:02:46;;;;;;;6.77;4.27;;;;;;;18.12;70.47;100763.72;5082872;28;20970;-65
2022/09/05 00:05:22;;;;;;;4.00;3.63;;;;;;;18.11;70.65;100766.63;5088154;28;20476;-65
2022/09/05 00:07:53;;;;;;;4.20;3.77;;;;;;;18.07;71.01;100768.81;5100300;28;20467;-66
2022/09/05 00:10:24;;;;;;;7.47;4.40;;;;;;;18.07;70.58;100768.81;5098898;28;20480;-65
2022/09/05 00:12:51;;;;;;;3.83;3.53;;;;;;;18.06;70.65;100776.09;5098438;28;20429;-66
2022/09/05 00:15:22;;;;;;;4.37;3.73;;;;;;;18.08;70.49;100772.38;5094253;28;20457;-66
2022/09/05 00:18:27;;;;;;;5.80;4.10;;;;;;;18.00;70.43;100774.13;5081834;28;20525;-65
2022/09/05 00:20:59;;;;;;;4.30;3.90;;;;;;;17.99;70.61;100769.72;5069880;28;20469;-65
2022/09/05 00:23:34;;;;;;;4.93;3.63;;;;;;;17.94;70.84;100772.09;5094099;28;20458;-65
2022/09/05 00:26:17;;;;;;;5.33;3.93;;;;;;;17.90;70.74;100770.78;5097098;28;20472;-63
2022/09/05 00:28:49;;;;;;;6.73;4.47;;;;;;;17.93;70.91;100773.09;5101326;28;20538;-63
2022/09/05 00:31:33;;;;;;;4.40;4.00;;;;;;;17.91;70.68;100767.03;5080909;28;20549;-63
2022/09/05 00:34:12;;;;;;;4.80;4.30;;;;;;;17.88;70.55;100775.53;5081961;28;20448;-63
2022/09/05 00:36:44;;;;;;;5.60;4.53;;;;;;;17.83;71.02;100764.34;5080297;28;20479;-64
2022/09/05 00:39:15;;;;;;;4.23;3.83;;;;;;;17.79;70.92;100766.53;5081992;28;21262;-63
2022/09/05 00:41:42;;;;;;;3.83;3.53;;;;;;;17.81;71.29;100769.06;5080199;28;20535;-64
2022/09/05 00:44:09;;;;;;;4.63;4.23;;;;;;;17.81;71.13;100767.22;5080863;28;20502;-63
2022/09/05 00:46:38;;;;;;;4.60;4.20;;;;;;;17.78;71.11;100764.03;5070098;28;20497;-63
2022/09/05 00:49:18;;;;;;;5.03;4.53;;;;;;;17.79;70.88;100771.94;5060200;28;20461;-63
2022/09/05 00:51:51;;;;;;;4.80;4.40;;;;;;;17.74;70.94;100765.38;5073524;28;20481;-63
2022/09/05 00:54:36;;;;;;;4.40;4.00;;;;;;;17.68;71.29;100762.34;5098201;28;20526;-64
2022/09/05 00:57:15;;;;;;;5.30;4.00;;;;;;;17.65;71.26;100770.84;5099931;28;20467;-64
2022/09/05 00:59:57;;;;;;;6.10;4.70;;;;;;;17.60;71.66;100765.13;5098891;28;20467;-65
2022/09/05 01:02:35;;;;;;;4.60;4.20;;;;;;;17.56;71.69;100773.75;5099905;28;20467;-64
2022/09/05 01:05:06;;;;;;;4.10;3.70;;;;;;;17.48;72.21;100766.47;5095447;28;20440;-64
2022/09/05 01:07:44;;;;;;;5.00;4.47;;;;;;;17.49;72.06;100769.00;5099666;28;20487;-64
2022/09/05 01:10:19;;;;;;;5.37;4.30;;;;;;;17.47;72.08;100768.34;5093796;28;20487;-64
2022/09/05 01:13:17;;;;;;;4.90;4.40;;;;;;;17.50;72.27;100767.16;5063827;28;20532;-64
2022/09/05 01:15:52;;;;;;;7.30;4.47;;;;;;;17.47;72.51;100765.63;5075865;28;21636;-64
2022/09/05 01:18:36;;;;;;;5.20;4.80;;;;;;;17.46;72.35;100766.69;5100260;28;20434;-65
2022/09/05 01:21:18;;;;;;;6.00;4.33;;;;;;;17.45;72.72;100764.16;5099876;28;20490;-64
2022/09/05 01:23:50;;;;;;;4.70;4.30;;;;;;;17.37;72.71;100764.16;5097911;28;20941;-64
2022/09/05 01:26:41;;;;;;;7.17;4.30;;;;;;;17.28;72.96;100764.16;5070929;28;20832;-64
2022/09/05 01:29:18;;;;;;;5.50;4.43;;;;;;;17.18;73.62;100759.97;5069393;28;20455;-64
2022/09/05 01:31:55;;;;;;;5.50;4.90;;;;;;;17.21;73.28;100768.56;5103211;28;20484;-64
2022/09/05 01:34:26;;;;;;;7.30;4.90;;;;;;;17.20;73.12;100763.34;5103552;28;20443;-64
2022/09/05 01:36:57;;;;;;;6.50;5.17;;;;;;;17.10;73.47;100761.66;5102775;28;21072;-64
2022/09/05 01:39:33;;;;;;;5.30;4.47;;;;;;;17.08;74.06;100761.00;5091651;28;20941;-64
2022/09/05 01:42:07;;;;;;;6.03;4.47;;;;;;;17.00;74.30;100763.72;5103089;28;20479;-64
2022/09/05 01:44:55;;;;;;;9.07;4.77;;;;;;;16.92;74.60;100758.31;5100423;28;20451;-64
2022/09/05 01:47:37;;;;;;;4.63;4.23;;;;;;;16.93;74.48;100763.53;5096831;28;20505;-64
2022/09/05 01:50:17;;;;;;;4.90;4.40;;;;;;;16.92;74.52;100764.53;5103516;28;20477;-64
2022/09/05 01:52:57;;;;;;;6.20;5.60;;;;;;;16.99;74.68;100771.97;5083876;28;20460;-64
2022/09/05 01:55:31;;;;;;;4.70;4.13;;;;;;;17.02;74.28;100758.97;5084850;28;20476;-64
2022/09/05 01:58:05;;;;;;;6.23;4.80;;;;;;;17.05;73.97;100761.34;5083211;28;21022;-65
2022/09/05 02:00:42;;;;;;;5.67;5.00;;;;;;;17.05;74.01;100763.22;5073016;28;20522;-64
2022/09/05 02:03:16;;;;;;;5.83;4.40;;;;;;;17.04;74.02;100761.50;5072952;28;20439;-64
2022/09/05 02:06:09;;;;;;;4.83;4.40;;;;;;;16.99;74.05;100763.88;5102718;28;20551;-64
2022/09/05 02:09:20;;;;;;;4.63;4.27;;;;;;;16.99;74.28;100767.41;5100522;28;20451;-65
2022/09/05 02:11:52;;;;;;;5.80;4.77;;;;;;;16.92;74.49;100759.13;5049356;28;20513;-64
2022/09/05 02:14:29;;;;;;;6.07;3.90;;;;;;;16.89;74.71;100762.19;5049688;28;20584;-64
2022/09/05 02:17:08;;;;;;;5.33;4.83;;;;;;;16.85;74.83;100768.94;5048743;28;20524;-64
2022/09/05 02:19:42;;;;;;;7.30;4.93;;;;;;;16.86;74.49;100767.09;5057340;28;20824;-64
2022/09/05 02:22:11;;;;;;;5.70;4.43;;;;;;;16.79;74.91;100760.63;5057808;28;20603;-64
2022/09/05 02:24:42;;;;;;;8.90;4.80;;;;;;;16.75;75.22;100766.38;5057939;28;20461;-65
2022/09/05 02:27:17;;;;;;;5.83;4.93;;;;;;;16.72;75.46;100768.59;5053489;28;21058;-64
2022/09/05 02:29:49;;;;;;;6.93;4.80;;;;;;;16.66;75.41;100763.84;5052988;28;20461;-64
2022/09/05 02:32:23;;;;;;;6.40;4.90;;;;;;;16.63;75.64;100762.34;5039524;28;20498;-64
2022/09/05 02:34:55;;;;;;;5.13;4.43;;;;;;;16.62;75.46;100767.91;5020696;28;21118;-64
2022/09/05 02:37:26;;;;;;;4.83;4.33;;;;;;;16.60;75.49;100761.81;5039754;28;20505;-64
2022/09/05 02:39:59;;;;;;;7.33;5.27;;;;;;;16.63;75.23;100756.94;5040288;28;20569;-63
2022/09/05 02:42:30;;;;;;;8.43;5.90;;;;;;;16.61;75.26;100766.19;5069088;28;21155;-64
2022/09/05 02:45:05;;;;;;;8.27;4.73;;;;;;;16.59;75.15;100763.66;5103782;28;20439;-63
2022/09/05 02:47:36;;;;;;;5.20;4.70;;;;;;;16.60;75.43;100759.13;5102827;28;20797;-64
2022/09/05 02:50:18;;;;;;;6.47;5.83;;;;;;;16.55;75.51;100752.34;5121710;28;20442;-63
2022/09/05 02:52:46;;;;;;;5.07;4.63;;;;;;;16.52;75.59;100759.94;5121499;28;20440;-63
2022/09/05 02:55:20;;;;;;;6.10;4.70;;;;;;;16.49;75.83;100754.88;5107141;28;20452;-63
2022/09/05 02:57:51;;;;;;;5.77;5.27;;;;;;;16.46;75.95;100764.16;5113762;28;20438;-64
2022/09/05 03:00:20;;;;;;;5.37;4.87;;;;;;;16.45;75.85;100758.94;5114559;28;20440;-64
2022/09/05 03:03:09;;;;;;;6.70;5.10;;;;;;;16.45;75.78;100754.38;5119080;28;20438;-64
2022/09/05 03:05:38;;;;;;;5.90;4.70;;;;;;;16.44;76.06;100759.94;5110350;28;20469;-64
2022/09/05 03:08:14;;;;;;;5.30;4.80;;;;;;;16.45;76.14;100759.75;5116330;28;20816;-64
2022/09/05 03:11:04;;;;;;;5.10;4.60;;;;;;;16.46;75.85;100758.75;5102691;28;20474;-64
2022/09/05 03:13:54;;;;;;;6.77;5.07;;;;;;;16.48;75.69;100759.44;5104058;28;20445;-63
2022/09/05 03:16:50;;;;;;;5.60;5.00;;;;;;;16.47;75.91;100752.34;5105392;28;20477;-64
2022/09/05 03:19:40;;;;;;;7.27;4.80;;;;;;;16.50;75.85;100757.41;5117455;28;20438;-64
2022/09/05 03:22:34;;;;;;;6.13;5.20;;;;;;;16.47;76.01;100751.50;5122726;28;20481;-64
2022/09/05 03:25:31;;;;;;;7.17;5.20;;;;;;;16.45;75.59;100754.38;5082300;28;20456;-64
2022/09/05 03:28:31;;;;;;;7.27;4.97;;;;;;;16.38;75.76;100761.44;5091503;28;20451;-64
2022/09/05 03:31:22;;;;;;;9.43;5.27;;;;;;;16.32;76.12;100765.66;5107453;28;20544;-64
2022/09/05 03:34:07;;;;;;;8.87;5.57;;;;;;;16.30;76.18;100762.28;5093112;28;20455;-64
2022/09/05 03:37:19;;;;;;;5.27;4.80;;;;;;;16.28;76.07;100766.97;5102596;28;20547;-64
2022/09/05 03:40:27;;;;;;;5.93;5.13;;;;;;;16.26;76.11;100763.59;5065058;28;20467;-64
2022/09/05 03:43:21;;;;;;;7.67;5.60;;;;;;;16.17;76.35;100765.44;5073543;28;20463;-64
2022/09/05 03:46:03;;;;;;;7.23;6.10;;;;;;;16.15;76.48;100766.63;5091139;28;21127;-64
2022/09/05 03:49:04;;;;;;;6.83;5.00;;;;;;;16.16;76.30;100777.25;5114027;28;20460;-64
2022/09/05 03:51:33;;;;;;;7.00;5.70;;;;;;;16.13;76.33;100772.19;5102938;28;20503;-64
2022/09/05 03:54:29;;;;;;;8.57;5.77;;;;;;;16.12;76.37;100770.47;5102262;28;20515;-65
2022/09/05 03:57:20;;;;;;;5.90;5.40;;;;;;;16.15;76.43;100775.56;5114971;28;20474;-66
2022/09/05 03:59:58;;;;;;;6.60;5.73;;;;;;;16.07;76.59;100774.69;5082141;28;20425;-65
2022/09/05 04:02:29;;;;;;;6.23;5.63;;;;;;;15.99;77.06;100767.44;5105827;28;20499;-64
2022/09/05 04:05:01;;;;;;;7.80;7.00;;;;;;;15.98;77.15;100766.56;5103007;28;20474;-64
2022/09/05 04:07:31;;;;;;;6.80;5.40;;;;;;;15.95;77.42;100766.91;5102401;28;20483;-64
2022/09/05 04:10:01;;;;;;;7.13;6.27;;;;;;;15.96;77.55;100770.44;5101696;28;20476;-65
2022/09/05 04:12:32;;;;;;;7.50;6.80;;;;;;;15.91;77.57;100762.00;5116193;28;20516;-65
2022/09/05 04:15:03;;;;;;;11.30;6.00;;;;;;;15.88;77.71;100767.72;5120599;28;20936;-65
2022/09/05 04:17:35;;;;;;;7.27;6.40;;;;;;;15.88;77.63;100767.72;5102682;28;20495;-65
2022/09/05 04:20:07;;;;;;;7.87;6.30;;;;;;;15.86;78.07;100775.13;5102927;28;20446;-64
2022/09/05 04:22:59;;;;;;;8.53;6.57;;;;;;;15.86;78.12;100775.94;5100943;28;20450;-65
2022/09/05 04:25:38;;;;;;;7.03;6.33;;;;;;;15.90;77.60;100779.16;5100056;28;20533;-64
2022/09/05 04:28:18;;;;;;;7.20;6.60;;;;;;;15.92;77.88;100778.00;5100451;28;20457;-65
2022/09/05 04:30:46;;;;;;;9.63;6.40;;;;;;;15.91;77.50;100787.09;5100978;28;20536;-64
2022/09/05 04:33:19;;;;;;;7.53;6.83;;;;;;;15.93;77.63;100785.09;5100881;28;20469;-64
2022/09/05 04:35:54;;;;;;;8.67;6.90;;;;;;;15.93;77.57;100781.53;5115876;28;21037;-68
2022/09/05 04:38:35;;;;;;;8.57;6.63;;;;;;;15.98;77.63;100793.53;5119902;28;20816;-67
2022/09/05 04:41:08;;;;;;;7.83;7.13;;;;;;;16.01;77.35;100795.06;5100220;28;20497;-67
2022/09/05 04:43:37;;;;;;;9.60;7.70;;;;;;;16.12;77.75;100797.47;5099142;28;20524;-71
2022/09/05 04:46:11;;;;;;;9.60;6.37;;;;;;;16.22;76.54;100791.94;5096991;28;20476;-69
2022/09/05 04:48:44;;;;;;;7.97;6.67;;;;;;;16.16;76.41;100792.56;5098176;28;20493;-70
2022/09/05 04:51:28;;;;;;;7.67;6.33;;;;;;;16.16;75.51;100797.97;5105865;28;20579;-70
2022/09/05 04:54:10;;;;;;;9.93;6.70;;;;;;;16.24;75.29;100791.78;5079304;28;20456;-71
2022/09/05 04:56:44;;;;;;;9.40;7.00;;;;;;;16.27;74.83;100796.84;5079222;28;21076;-70
2022/09/05 04:59:16;;;;;;;8.40;6.00;;;;;;;16.40;74.96;100799.91;5103142;28;20921;-71
2022/09/05 05:01:47;;;;;;;8.43;6.03;;;;;;;16.41;74.03;100809.69;5121158;28;20479;-71
2022/09/05 05:04:18;;;;;;;8.43;6.10;;;;;;;16.33;73.90;100807.81;5110349;28;20549;-71
2022/09/05 05:06:48;;;;;;;9.10;6.90;;;;;;;16.36;74.01;100815.56;5103478;28;20509;-71
2022/09/05 05:09:18;;;;;;;8.33;5.80;;;;;;;16.54;73.67;100804.66;5111079;28;20495;-68
2022/09/05 05:11:51;;;;;;;8.90;5.73;;;;;;;16.61;72.69;100812.09;5123653;28;20876;-68
2022/09/05 05:14:21;;;;;;;8.20;6.20;;;;;;;16.94;72.23;100813.84;5115177;28;20488;-71
2022/09/05 05:16:51;;;;;;;6.60;5.77;;;;;;;17.31;71.12;100812.47;5102204;28;20498;-71
2022/09/05 05:19:19;;;;;;;7.53;5.43;;;;;;;17.63;69.80;100818.00;5105893;28;20438;-71
2022/09/05 05:21:49;;;;;;;7.40;5.43;;;;;;;17.57;69.95;100815.97;5095286;28;20478;-72
2022/09/05 05:24:17;;;;;;;6.83;6.07;;;;;;;17.50;69.97;100818.53;5102025;28;21033;-70
2022/09/05 05:26:51;;;;;;;9.37;7.10;;;;;;;17.65;70.02;100824.06;5101346;28;20490;-68
2022/09/05 05:29:20;;;;;;;8.13;5.33;;;;;;;17.92;69.15;100820.13;5083246;28;20440;-68
2022/09/05 05:31:49;;;;;;;6.93;5.80;;;;;;;18.42;67.13;100823.47;5081732;28;20985;-69
2022/09/05 05:34:21;;;;;;;8.80;6.00;;;;;;;19.19;64.69;100828.00;5084616;28;20485;-69
2022/09/05 05:36:52;;;;;;;15.00;6.20;;;;;;;20.19;60.76;100825.91;5102879;28;20528;-68
2022/09/05 05:39:23;;;;;;;10.00;6.10;;;;;;;20.54;59.30;100823.44;5102025;28;20568;-68
2022/09/05 05:41:53;;;;;;;8.03;6.83;;;;;;;20.44;58.66;100823.72;5102864;28;20561;-68
2022/09/05 05:44:24;;;;;;;11.73;5.27;;;;;;;20.51;58.37;100822.75;5083451;28;20448;-68
2022/09/05 05:46:57;;;;;;;8.70;5.80;;;;;;;20.74;57.88;100816.34;5080023;28;20480;-68
2022/09/05 05:49:45;;;;;;;6.50;5.00;;;;;;;20.58;58.14;100828.25;5081778;28;20443;-68
2022/09/05 05:52:44;;;;;;;8.00;5.47;;;;;;;20.32;59.37;100816.06;5081608;28;20489;-68
2022/09/05 05:55:24;;;;;;;9.60;5.70;;;;;;;19.40;62.39;100818.31;5077559;28;20469;-68
2022/09/05 05:58:14;;;;;;;10.50;6.50;;;;;;;19.19;63.36;100823.41;5082356;28;20823;-68
2022/09/05 06:00:59;;;;;;;7.33;5.80;;;;;;;19.55;62.83;100821.91;5079634;28;21015;-68
2022/09/05 06:03:54;;;;;;;7.50;5.53;;;;;;;20.41;61.35;100824.09;5079995;28;21011;-69
2022/09/05 06:06:34;;;;;;;6.87;5.57;;;;;;;21.09;58.58;100830.03;5081308;28;20885;-72
2022/09/05 06:09:31;;;;;;;5.93;4.80;;;;;;;23.01;52.72;100827.69;5080357;28;20456;-72
2022/09/05 06:12:16;;;;;;;7.80;4.90;;;;;;;24.98;46.82;100836.59;5081567;28;21083;-72
2022/09/05 06:15:16;;;;;;;6.77;4.93;;;;;;;24.34;47.47;100841.16;5082887;28;20442;-72
2022/09/05 06:18:06;;;;;;;9.10;5.07;;;;;;;24.11;48.13;100838.06;5058162;28;20475;-72
2022/09/05 06:21:01;;;;;;;7.37;4.43;;;;;;;24.34;48.02;100841.16;5067807;28;20488;-72
2022/09/05 06:23:52;;;;;;;6.13;5.00;;;;;;;25.36;45.60;100843.03;5065331;28;20452;-73
2022/09/05 06:26:39;;;;;;;6.60;5.07;;;;;;;26.14;43.29;100844.38;5059273;28;20478;-72
2022/09/05 06:29:12;;;;;;;5.57;4.13;;;;;;;27.05;41.17;100839.75;5072170;28;20494;-73
2022/09/05 06:31:58;;;;;;;5.00;4.50;;;;;;;25.88;43.88;100853.69;5060707;28;21152;-72
2022/09/05 06:34:40;;;;;;;5.30;4.20;;;;;;;25.79;44.19;100835.91;5062297;28;20703;-72
2022/09/05 06:37:15;;;;;;;7.73;4.50;;;;;;;25.67;44.60;100842.09;5059917;28;20479;-72
2022/09/05 06:39:57;;;;;;;6.50;4.50;;;;;;;25.99;43.87;100843.91;5061934;28;20460;-72
2022/09/05 06:42:27;;;;;;;5.90;4.20;;;;;;;25.93;44.08;100848.38;5073097;28;20494;-72
2022/09/05 06:45:15;;;;;;;5.77;4.80;;;;;;;25.90;42.85;100843.34;5060481;28;20517;-73
2022/09/05 06:47:45;;;;;;;7.00;4.27;;;;;;;26.45;42.43;100851.56;5059679;28;20460;-72
2022/09/05 06:50:14;;;;;;;6.03;4.07;;;;;;;26.99;41.77;100842.59;5061506;28;20444;-72
2022/09/05 06:53:16;;;;;;;5.53;3.60;;;;;;;27.37;41.02;100846.84;5060560;28;20480;-72
2022/09/05 06:56:04;;;;;;;9.90;3.73;;;;;;;27.21;40.92;100840.97;5046475;28;20471;-73
2022/09/05 06:59:04;;;;;;;5.87;3.90;;;;;;;27.41;40.15;100837.91;5061235;28;20498;-72
2022/09/05 07:01:33;;;;;;;4.17;3.60;;;;;;;28.07;39.07;100843.28;5061372;28;20470;-73
2022/09/05 07:04:15;;;;;;;3.70;3.40;;;;;;;28.43;37.78;100846.72;5081655;28;20439;-72
2022/09/05 07:06:54;;;;;;;3.37;3.10;;;;;;;29.20;37.02;100842.69;5078736;28;20471;-72
2022/09/05 07:09:25;;;;;;;6.10;3.30;;;;;;;30.81;34.35;100847.28;5080726;28;20463;-72
2022/09/05 07:12:03;;;;;;;4.33;3.40;;;;;;;30.21;34.56;100838.06;5073435;28;20510;-73
2022/09/05 07:14:31;;;;;;;6.07;3.37;;;;;;;28.90;36.58;100832.78;5059414;28;20869;-73
2022/09/05 07:17:07;;;;;;;4.13;3.00;;;;;;;29.17;36.55;100845.94;5060033;28;20506;-72
2022/09/05 07:19:38;;;;;;;3.97;3.07;;;;;;;29.62;35.65;100844.97;5059915;28;20910;-73
2022/09/05 07:22:27;;;;;;;5.00;2.70;;;;;;;29.14;36.48;100843.63;5059439;28;20499;-73
2022/09/05 07:24:55;;;;;;;4.87;3.43;;;;;;;28.80;36.89;100848.25;5068927;28;20463;-72
2022/09/05 07:27:34;;;;;;;4.40;3.20;;;;;;;28.87;36.79;100848.94;5080134;28;20525;-72
2022/09/05 07:30:01;;;;;;;4.13;3.23;;;;;;;28.27;37.84;100859.34;5060939;28;20519;-72
2022/09/05 07:32:29;;;;;;;3.57;3.27;;;;;;;28.83;37.18;100858.78;5062606;28;20491;-72
2022/09/05 07:34:57;;;;;;;4.60;3.40;;;;;;;28.80;37.46;100853.75;5081320;28;20431;-72
2022/09/05 07:37:28;;;;;;;4.33;2.70;;;;;;;28.53;37.73;100857.09;5077725;28;20917;-72
2022/09/05 07:39:58;;;;;;;6.13;3.87;;;;;;;29.41;36.13;100863.13;5080606;28;20467;-72
2022/09/05 07:42:29;;;;;;;4.30;3.40;;;;;;;29.70;35.68;100860.22;5074387;28;20495;-72
2022/09/05 07:44:58;;;;;;;2.90;2.70;;;;;;;29.78;35.43;100864.53;5040337;28;20461;-72
2022/09/05 07:47:28;;;;;;;5.07;3.07;;;;;;;30.21;34.65;100858.19;5039698;28;20534;-72
2022/09/05 07:49:56;;;;;;;5.03;3.23;;;;;;;28.40;38.17;100855.50;5068248;28;20449;-72
2022/09/05 07:52:26;;;;;;;3.70;2.83;;;;;;;28.59;38.32;100849.81;5059143;28;20514;-72
2022/09/05 07:54:57;;;;;;;4.00;2.90;;;;;;;28.01;39.60;100860.72;5059694;28;20460;-72
2022/09/05 07:57:26;;;;;;;5.87;3.00;;;;;;;28.04;40.20;100854.75;5059817;28;20475;-72
2022/09/05 07:59:56;;;;;;;5.37;3.10;;;;;;;29.30;37.02;100853.00;5059026;28;20440;-72
2022/09/05 08:02:23;;;;;;;10.23;3.37;;;;;;;29.84;36.40;100857.97;5062980;28;20509;-72
2022/09/05 08:04:50;;;;;;;4.40;3.10;;;;;;;30.81;34.56;100863.84;5072048;28;20480;-72
2022/09/05 08:07:20;;;;;;;3.40;3.03;;;;;;;32.01;32.33;100858.97;5058211;28;20575;-72
2022/09/05 08:09:53;;;;;;;6.47;2.90;;;;;;;32.59;31.44;100859.78;5059854;28;20485;-72
2022/09/05 08:12:25;;;;;;;6.10;3.10;;;;;;;32.58;31.90;100852.56;5059014;28;20495;-73
2022/09/05 08:14:58;;;;;;;3.77;2.80;;;;;;;33.13;30.89;100863.19;5058823;28;20475;-72
2022/09/05 08:17:26;;;;;;;12.97;2.80;;;;;;;32.51;31.55;100857.53;5058936;28;20469;-73
2022/09/05 08:20:07;;;;;;;3.00;2.33;;;;;;;33.14;30.55;100856.56;5059627;28;20518;-73
2022/09/05 08:22:40;;;;;;;3.57;2.60;;;;;;;33.34;30.67;100852.97;5058794;28;20973;-73
2022/09/05 08:25:15;;;;;;;6.03;3.07;;;;;;;33.33;30.42;100845.75;5059431;28;20922;-73
2022/09/05 08:27:50;;;;;;;5.60;2.20;;;;;;;33.55;29.92;100851.00;5069244;28;20738;-72
2022/09/05 08:30:18;;;;;;;2.97;2.40;;;;;;;34.27;28.27;100859.13;5058161;28;20495;-73
2022/09/05 08:32:47;;;;;;;3.80;2.87;;;;;;;34.14;28.73;100852.22;5060269;28;20473;-72
2022/09/05 08:35:17;;;;;;;4.20;2.70;;;;;;;33.81;29.34;100848.19;5059531;28;20453;-73
2022/09/05 08:37:44;;;;;;;6.67;2.70;;;;;;;33.97;28.95;100844.22;5062966;28;20481;-73
2022/09/05 08:40:19;;;;;;;2.80;2.60;;;;;;;34.08;28.51;100843.09;5064236;28;20456;-73
2022/09/05 08:42:49;;;;;;;2.37;2.17;;;;;;;32.43;31.37;100844.25;5080860;28;20511;-72
2022/09/05 08:45:19;;;;;;;5.30;2.67;;;;;;;31.66;33.24;100833.63;5083046;28;21042;-73
2022/09/05 08:47:54;;;;;;;3.30;2.57;;;;;;;32.40;32.20;100833.72;5082963;28;20455;-72
2022/09/05 08:50:37;;;;;;;4.23;3.00;;;;;;;33.65;30.36;100837.09;5082278;28;20443;-72
2022/09/05 08:53:13;;;;;;;4.40;2.20;;;;;;;33.53;29.16;100839.34;5083532;28;20616;-72
2022/09/05 08:55:47;;;;;;;3.10;2.37;;;;;;;34.08;28.94;100833.91;5082756;28;20470;-72
2022/09/05 08:58:29;;;;;;;2.53;2.33;;;;;;;34.31;27.52;100833.28;5082445;28;21082;-72
2022/09/05 09:01:05;;;;;;;2.90;2.07;;;;;;;35.36;27.07;100827.53;5083147;28;20501;-73
2022/09/05 09:03:38;;;;;;;5.07;1.87;;;;;;;35.05;27.47;100830.59;5083191;28;20451;-72
2022/09/05 09:06:22;;;;;;;6.87;2.27;;;;;;;35.40;26.78;100814.72;5081655;28;20537;-72
2022/09/05 09:09:04;;;;;;;3.57;2.20;;;;;;;34.94;26.87;100825.41;5082907;28;20499;-72
2022/09/05 09:11:35;;;;;;;3.83;2.47;;;;;;;34.78;27.80;100819.97;5083292;28;20468;-72
2022/09/05 09:14:46;;;;;;;4.83;2.40;;;;;;;33.35;29.62;100804.72;5077523;28;20563;-72
2022/09/05 09:17:25;;;;;;;4.13;2.10;;;;;;;34.34;28.49;100812.47;5070382;28;20471;-72
2022/09/05 09:20:06;;;;;;;6.40;2.57;;;;;;;35.52;26.18;100810.69;5081147;28;20527;-72
2022/09/05 09:22:40;;;;;;;6.67;2.43;;;;;;;35.62;26.04;100808.66;5082724;28;20472;-73
2022/09/05 09:25:09;;;;;;;3.53;2.53;;;;;;;35.79;26.42;100807.38;5081138;28;20452;-72
2022/09/05 09:27:55;;;;;;;2.53;1.80;;;;;;;35.90;25.37;100803.34;5081507;28;20455;-72
2022/09/05 09:30:22;;;;;;;6.03;2.80;;;;;;;34.74;27.22;100807.78;5082460;28;20450;-72
2022/09/05 09:32:50;;;;;;;15.20;3.67;;;;;;;34.18;27.73;100795.03;5083320;28;20471;-72
2022/09/05 09:35:23;;;;;;;7.10;2.33;;;;;;;34.69;27.26;100805.03;5081519;28;20429;-72
2022/09/05 09:38:26;;;;;;;2.40;1.97;;;;;;;35.21;25.88;100809.06;5082287;28;20542;-72
2022/09/05 09:41:16;;;;;;;2.57;1.90;;;;;;;34.97;25.68;100791.50;5081826;28;20475;-72
2022/09/05 09:44:03;;;;;;;2.93;2.13;;;;;;;35.38;25.80;100791.97;5068733;28;20445;-72
2022/09/05 09:46:36;;;;;;;2.10;1.90;;;;;;;35.38;25.97;100782.75;5061727;28;20526;-72
2022/09/05 09:49:11;;;;;;;3.67;2.17;;;;;;;34.86;25.99;100794.34;5062054;28;20480;-72
2022/09/05 09:52:01;;;;;;;4.20;2.33;;;;;;;34.61;26.53;100792.56;5063045;28;20617;-72
2022/09/05 09:55:00;;;;;;;4.63;2.30;;;;;;;34.73;26.91;100795.00;5075172;28;20491;-72
2022/09/05 09:57:52;;;;;;;4.27;1.90;;;;;;;34.94;26.11;100783.72;5061010;28;20499;-72
2022/09/05 10:00:22;;;;;;;2.37;2.17;;;;;;;34.21;26.98;100780.63;5062194;28;20442;-72
2022/09/05 10:03:04;;;;;;;2.53;2.33;;;;;;;35.69;25.02;100777.69;5063091;28;20492;-72
2022/09/05 10:06:03;;;;;;;2.90;1.93;;;;;;;35.72;25.12;100770.75;5061476;28;20494;-72
2022/09/05 10:08:47;;;;;;;2.43;2.23;;;;;;;36.83;24.28;100775.00;5061917;28;20974;-72
2022/09/05 10:11:20;;;;;;;3.30;2.50;;;;;;;34.45;26.29;100777.16;5061540;28;20488;-72
2022/09/05 10:14:02;;;;;;;3.20;2.37;;;;;;;33.96;27.61;100773.25;5061588;28;20518;-72
2022/09/05 10:16:52;;;;;;;2.00;1.80;;;;;;;34.69;26.24;100788.34;5061333;28;20499;-72
2022/09/05 10:19:42;;;;;;;2.73;1.93;;;;;;;34.80;25.60;100775.25;5070664;28;20501;-72
2022/09/05 10:22:27;;;;;;;3.00;1.97;;;;;;;34.95;25.41;100771.47;5082134;28;20479;-72
2022/09/05 10:25:17;;;;;;;3.07;2.20;;;;;;;34.66;25.62;100764.75;5082208;28;20444;-72
2022/09/05 10:28:04;;;;;;;4.30;2.10;;;;;;;35.89;23.49;100773.84;5076365;28;20476;-72
2022/09/05 10:30:43;;;;;;;3.43;2.20;;;;;;;34.59;26.41;100772.59;5077698;28;20471;-71
2022/09/05 10:33:35;;;;;;;7.10;1.90;;;;;;;35.25;25.18;100768.44;5042321;28;20468;-72
2022/09/05 10:36:21;;;;;;;2.30;1.53;;;;;;;35.14;24.52;100763.25;5040640;28;20532;-72
2022/09/05 10:38:52;;;;;;;3.83;1.77;;;;;;;35.11;25.00;100769.41;5042076;28;20431;-72
2022/09/05 10:41:22;;;;;;;1.97;1.77;;;;;;;35.42;24.67;100770.78;5049936;28;20516;-72
2022/09/05 10:43:53;;;;;;;4.53;2.10;;;;;;;34.54;25.98;100766.25;5080767;28;20520;-72
2022/09/05 10:46:27;;;;;;;2.40;2.20;;;;;;;34.46;25.10;100757.44;5080263;28;20487;-71
2022/09/05 10:49:03;;;;;;;4.30;2.07;;;;;;;35.06;24.72;100761.94;5079357;28;20480;-72
2022/09/05 10:51:34;;;;;;;2.60;2.10;;;;;;;35.11;25.13;100758.28;5081219;28;20499;-72
2022/09/05 10:54:11;;;;;;;2.43;2.00;;;;;;;35.00;25.67;100758.41;5080976;28;20495;-72
2022/09/05 10:56:40;;;;;;;2.80;2.10;;;;;;;35.29;24.84;100753.97;5079066;28;21105;-72
2022/09/05 10:59:15;;;;;;;11.67;3.00;;;;;;;35.39;25.22;100748.28;5081140;28;20486;-72
2022/09/05 11:01:46;;;;;;;6.40;2.80;;;;;;;35.66;25.19;100749.63;5081471;28;20491;-72
2022/09/05 11:04:16;;;;;;;2.50;2.20;;;;;;;35.58;24.39;100743.59;5080208;28;20444;-72
2022/09/05 11:06:54;;;;;;;1.87;1.70;;;;;;;36.02;24.58;100750.00;5080418;28;20533;-72
2022/09/05 11:09:42;;;;;;;6.53;2.00;;;;;;;34.91;25.18;100737.09;5080961;28;20443;-71
2022/09/05 11:12:19;;;;;;;2.93;2.00;;;;;;;33.49;26.62;100738.44;5078517;28;20475;-72
2022/09/05 11:14:52;;;;;;;4.83;1.93;;;;;;;32.36;28.70;100739.34;5081014;28;20472;-72
2022/09/05 11:17:39;;;;;;;3.30;2.00;;;;;;;33.43;27.78;100739.59;5079641;28;20481;-71
2022/09/05 11:20:39;;;;;;;2.70;2.10;;;;;;;33.96;26.15;100731.63;5080029;28;20443;-71
2022/09/05 11:23:11;;;;;;;2.80;1.90;;;;;;;32.39;28.82;100732.41;5081068;28;20504;-71
2022/09/05 11:25:38;;;;;;;2.30;2.10;;;;;;;32.03;29.63;100738.69;5079834;28;20478;-71
2022/09/05 11:28:13;;;;;;;2.40;2.20;;;;;;;30.95;31.79;100745.56;5080367;28;20454;-71
2022/09/05 11:30:43;;;;;;;3.57;1.93;;;;;;;31.08;31.11;100736.81;5080104;28;20478;-71
2022/09/05 11:33:22;;;;;;;3.33;2.10;;;;;;;32.85;28.55;100740.78;5079573;28;20483;-71
2022/09/05 11:35:53;;;;;;;4.13;2.13;;;;;;;33.21;28.44;100733.28;5079800;28;20901;-71
2022/09/05 11:38:45;;;;;;;3.33;2.00;;;;;;;33.31;27.92;100737.13;5080742;28;20458;-72
2022/09/05 11:41:51;;;;;;;2.40;2.00;;;;;;;31.70;29.98;100735.25;5078768;28;20977;-71
2022/09/05 11:44:47;;;;;;;3.53;2.13;;;;;;;31.01;32.25;100727.94;5076454;28;20447;-71
2022/09/05 11:47:49;;;;;;;3.97;2.40;;;;;;;31.95;29.67;100733.69;5058430;28;20468;-71
2022/09/05 11:51:04;;;;;;;2.30;1.87;;;;;;;31.69;30.71;100722.53;5042750;28;20455;-72
2022/09/05 11:54:09;;;;;;;2.00;1.80;;;;;;;31.62;31.38;100724.72;5018527;28;20491;-71
2022/09/05 11:56:58;;;;;;;2.10;1.90;;;;;;;32.19;29.46;100723.00;5072208;28;20479;-71
2022/09/05 11:59:56;;;;;;;1.70;1.60;;;;;;;31.59;30.22;100716.94;5080628;28;20440;-71
2022/09/05 12:02:37;;;;;;;2.33;1.93;;;;;;;33.30;27.81;100714.13;5077307;28;20517;-71
2022/09/05 12:05:21;;;;;;;2.77;2.13;;;;;;;33.93;27.34;100712.78;5079645;28;20440;-72
2022/09/05 12:07:59;;;;;;;2.10;1.57;;;;;;;34.15;26.75;100706.81;5064029;28;20465;-72
2022/09/05 12:10:37;;;;;;;2.67;1.90;;;;;;;33.20;28.25;100703.06;5078185;28;20504;-72
2022/09/05 12:13:24;;;;;;;2.13;1.87;;;;;;;31.62;30.46;100694.31;5080505;28;20484;-71
2022/09/05 12:15:51;;;;;;;2.50;2.00;;;;;;;32.04;30.08;100698.03;5078843;28;20578;-70